Time;durP1;ratioP1;P1;durP2;ratioP2;P2;SDS_P1;SDS_P2;PMS_P1;PMS_P2;Temp;Humidity;BMP_temperature;BMP_pressure;BME280_temperature;BME280_humidity;BME280_pressure;Samples;Min_cycle;Max_cycle;Signal;HPM_P1;HPM_P2
2021/10/30 00:02:18;;;;;;;6.67;4.90;;;13.10;99.90;;;;;;5031476;28;20503;-61
2021/10/30 00:04:45;;;;;;;6.33;5.27;;;13.00;99.90;;;;;;5027211;28;20519;-61
2021/10/30 00:07:15;;;;;;;6.57;5.20;;;13.00;99.90;;;;;;5011349;28;20425;-62
2021/10/30 00:09:42;;;;;;;7.37;5.77;;;13.00;99.90;;;;;;5011374;28;20459;-61
2021/10/30 00:12:10;;;;;;;5.43;4.93;;;13.10;99.90;;;;;;5011738;28;20523;-61
2021/10/30 00:14:38;;;;;;;10.30;5.80;;;13.00;99.90;;;;;;5011092;28;20475;-62
2021/10/30 00:17:05;;;;;;;7.00;5.80;;;13.00;99.90;;;;;;5034631;28;20504;-61
2021/10/30 00:19:33;;;;;;;6.23;5.30;;;13.00;99.90;;;;;;5035614;28;20462;-61
2021/10/30 00:21:59;;;;;;;6.93;5.33;;;13.00;99.90;;;;;;5011981;28;20422;-61
2021/10/30 00:24:27;;;;;;;5.80;5.03;;;13.00;99.90;;;;;;5011073;28;20465;-61
2021/10/30 00:26:54;;;;;;;5.27;4.63;;;13.00;99.90;;;;;;4994009;28;20462;-61
2021/10/30 00:29:21;;;;;;;5.77;5.03;;;12.90;99.90;;;;;;5011295;28;20565;-62
2021/10/30 00:31:47;;;;;;;5.93;5.40;;;12.90;99.90;;;;;;5011638;28;20949;-62
2021/10/30 00:34:14;;;;;;;5.70;5.20;;;12.90;99.90;;;;;;5010722;28;20460;-62
2021/10/30 00:36:41;;;;;;;6.00;5.40;;;12.80;99.90;;;;;;4994623;28;20475;-61
2021/10/30 00:39:08;;;;;;;6.77;6.10;;;12.80;99.90;;;;;;5011116;28;20497;-61
2021/10/30 00:41:36;;;;;;;7.13;5.60;;;12.80;99.90;;;;;;5011565;28;20609;-61
2021/10/30 00:44:21;;;;;;;6.00;5.40;;;12.70;99.90;;;;;;5011479;28;20460;-61
2021/10/30 00:46:50;;;;;;;7.33;5.57;;;12.70;99.90;;;;;;5014732;28;20420;-61
2021/10/30 00:49:19;;;;;;;5.77;5.27;;;12.70;99.90;;;;;;5014094;28;20467;-61
2021/10/30 00:51:50;;;;;;;7.37;5.97;;;12.70;99.90;;;;;;5014956;28;20427;-62
2021/10/30 00:54:18;;;;;;;5.73;5.03;;;12.60;99.90;;;;;;5014307;28;20477;-62
2021/10/30 00:56:46;;;;;;;9.90;5.67;;;12.60;99.90;;;;;;5014626;28;20463;-58
2021/10/30 00:59:15;;;;;;;5.37;4.87;;;12.60;99.90;;;;;;5014205;28;20470;-58
2021/10/30 01:01:45;;;;;;;6.33;5.10;;;12.60;99.90;;;;;;5014660;28;20460;-58
2021/10/30 01:04:12;;;;;;;8.27;5.17;;;12.60;99.90;;;;;;5014104;28;20475;-58
2021/10/30 01:06:42;;;;;;;6.93;5.40;;;12.60;99.90;;;;;;5014793;28;20571;-58
2021/10/30 01:09:09;;;;;;;6.30;4.50;;;12.60;99.90;;;;;;4996548;28;20842;-58
2021/10/30 01:11:37;;;;;;;5.17;4.63;;;12.60;99.90;;;;;;5014486;28;20421;-58
2021/10/30 01:14:04;;;;;;;8.43;5.00;;;12.60;99.90;;;;;;5013555;28;20510;-58
2021/10/30 01:16:31;;;;;;;7.13;5.40;;;12.60;99.90;;;;;;5000497;28;20466;-58
2021/10/30 01:19:00;;;;;;;7.07;6.20;;;12.50;99.90;;;;;;5053615;28;20459;-58
2021/10/30 01:21:30;;;;;;;5.40;5.00;;;12.50;99.90;;;;;;5017827;28;20791;-58
2021/10/30 01:23:57;;;;;;;5.13;4.17;;;12.50;99.90;;;;;;5013969;28;20462;-58
2021/10/30 01:26:25;;;;;;;6.33;4.60;;;12.50;99.90;;;;;;4996129;28;20449;-58
2021/10/30 01:28:59;;;;;;;7.03;4.27;;;12.50;99.90;;;;;;5013675;28;20470;-58
2021/10/30 01:31:26;;;;;;;9.60;4.47;;;12.50;99.90;;;;;;5014111;28;20428;-58
2021/10/30 01:33:53;;;;;;;4.70;3.37;;;12.50;99.90;;;;;;5013529;28;20526;-58
2021/10/30 01:36:22;;;;;;;5.50;3.90;;;12.50;99.90;;;;;;5013806;28;20832;-58
2021/10/30 01:38:50;;;;;;;3.80;3.20;;;12.60;99.90;;;;;;5013516;28;20992;-58
2021/10/30 01:41:22;;;;;;;5.70;3.30;;;12.70;99.90;;;;;;5014224;28;20824;-58
2021/10/30 01:43:49;;;;;;;4.00;3.53;;;12.70;99.90;;;;;;5016308;28;20844;-58
2021/10/30 01:46:18;;;;;;;4.70;3.97;;;12.70;99.90;;;;;;5053265;28;20447;-58
2021/10/30 01:48:45;;;;;;;3.43;2.77;;;12.80;99.90;;;;;;5053138;28;20465;-58
2021/10/30 01:51:12;;;;;;;9.10;4.40;;;12.80;99.90;;;;;;5021484;28;20443;-58
2021/10/30 01:53:40;;;;;;;3.60;3.30;;;12.80;99.90;;;;;;5015378;28;20470;-59
2021/10/30 01:56:08;;;;;;;5.20;3.10;;;12.80;99.90;;;;;;5024428;28;20544;-60
2021/10/30 01:58:35;;;;;;;5.07;3.97;;;12.70;99.90;;;;;;5015324;28;20984;-58
2021/10/30 02:01:04;;;;;;;5.87;3.60;;;12.70;99.90;;;;;;5013681;28;20421;-58
2021/10/30 02:03:33;;;;;;;4.00;3.60;;;12.70;99.90;;;;;;4995597;28;20535;-58
2021/10/30 02:06:02;;;;;;;5.53;3.70;;;12.70;99.90;;;;;;5013201;28;20450;-58
2021/10/30 02:08:29;;;;;;;4.20;3.70;;;12.70;99.90;;;;;;5012651;28;20993;-58
2021/10/30 02:10:58;;;;;;;4.67;3.20;;;12.70;99.90;;;;;;5013520;28;20932;-58
2021/10/30 02:13:25;;;;;;;7.97;4.07;;;12.60;99.90;;;;;;5012790;28;20487;-58
2021/10/30 02:15:52;;;;;;;4.77;3.33;;;12.60;99.90;;;;;;5013105;28;20470;-58
2021/10/30 02:18:20;;;;;;;3.30;3.00;;;12.60;99.90;;;;;;5045612;28;20420;-58
2021/10/30 02:20:46;;;;;;;3.77;3.37;;;12.60;99.90;;;;;;5021844;28;20440;-58
2021/10/30 02:23:14;;;;;;;5.97;3.87;;;12.50;99.90;;;;;;5032632;28;20436;-58
2021/10/30 02:25:42;;;;;;;3.47;3.17;;;12.50;99.90;;;;;;5032871;28;20467;-58
2021/10/30 02:28:09;;;;;;;4.43;3.47;;;12.50;99.90;;;;;;5032038;28;20914;-59
2021/10/30 02:30:36;;;;;;;3.27;2.90;;;12.50;99.90;;;;;;5021347;28;20518;-58
2021/10/30 02:33:03;;;;;;;5.67;3.50;;;12.50;99.90;;;;;;5012940;28;20423;-58
2021/10/30 02:35:30;;;;;;;2.80;2.60;;;12.50;99.90;;;;;;5012748;28;20477;-58
2021/10/30 02:37:57;;;;;;;5.40;3.60;;;12.50;99.90;;;;;;5012769;28;20920;-58
2021/10/30 02:40:24;;;;;;;4.47;3.10;;;12.50;99.90;;;;;;5012214;28;20471;-58
2021/10/30 02:42:52;;;;;;;6.80;3.50;;;12.50;99.90;;;;;;5012828;28;20427;-58
2021/10/30 02:45:19;;;;;;;4.43;2.70;;;12.50;99.90;;;;;;5011994;28;20480;-58
2021/10/30 02:47:47;;;;;;;14.07;4.00;;;12.50;99.90;;;;;;5012467;28;20951;-58
2021/10/30 02:50:14;;;;;;;5.10;3.77;;;12.50;99.90;;;;;;5012067;28;20475;-58
2021/10/30 02:52:41;;;;;;;3.70;3.40;;;12.50;99.90;;;;;;5012621;28;20789;-58
2021/10/30 02:55:09;;;;;;;4.13;3.60;;;12.50;99.90;;;;;;5011970;28;20834;-58
2021/10/30 02:57:36;;;;;;;5.07;4.10;;;12.50;99.90;;;;;;5012313;28;20415;-58
2021/10/30 03:00:07;;;;;;;6.13;3.70;;;12.50;99.90;;;;;;5011772;28;20513;-58
2021/10/30 03:02:34;;;;;;;4.07;3.67;;;12.50;99.90;;;;;;5015478;28;20471;-58
2021/10/30 03:05:01;;;;;;;8.00;3.30;;;12.40;99.90;;;;;;5012477;28;20900;-58
2021/10/30 03:07:32;;;;;;;5.67;3.30;;;12.50;99.90;;;;;;5031656;28;20425;-58
2021/10/30 03:09:59;;;;;;;7.47;3.40;;;12.50;99.90;;;;;;5031808;28;20948;-58
2021/10/30 03:12:26;;;;;;;8.80;4.97;;;12.60;99.90;;;;;;5031918;28;20808;-58
2021/10/30 03:14:53;;;;;;;11.00;3.73;;;12.70;99.90;;;;;;5010057;28;20914;-58
2021/10/30 03:17:19;;;;;;;5.90;2.60;;;12.70;99.90;;;;;;5029125;28;20474;-58
2021/10/30 03:19:46;;;;;;;4.73;2.80;;;12.80;99.90;;;;;;5043053;28;20568;-58
2021/10/30 03:22:13;;;;;;;5.70;3.70;;;12.80;99.90;;;;;;5012273;28;20421;-58
2021/10/30 03:24:42;;;;;;;4.53;2.90;;;12.80;99.90;;;;;;5011682;28;20456;-58
2021/10/30 03:27:09;;;;;;;3.50;3.20;;;12.80;99.90;;;;;;5011686;28;20920;-58
2021/10/30 03:29:41;;;;;;;3.40;3.10;;;12.90;99.90;;;;;;5011784;28;20473;-58
2021/10/30 03:32:08;;;;;;;2.60;2.40;;;12.90;99.90;;;;;;5017582;28;20512;-57
2021/10/30 03:34:35;;;;;;;4.83;3.87;;;12.90;99.90;;;;;;5023575;28;20470;-58
2021/10/30 03:37:02;;;;;;;3.77;2.97;;;12.90;99.90;;;;;;5011902;28;20518;-58
2021/10/30 03:39:29;;;;;;;8.70;4.43;;;13.00;99.90;;;;;;5011474;28;20879;-58
2021/10/30 03:41:56;;;;;;;9.30;5.13;;;13.00;99.90;;;;;;5012086;28;20443;-58
2021/10/30 03:44:22;;;;;;;6.70;4.30;;;13.00;99.90;;;;;;5011256;28;20472;-58
2021/10/30 03:46:49;;;;;;;3.93;3.20;;;13.00;99.90;;;;;;5011755;28;20437;-58
2021/10/30 03:49:16;;;;;;;4.87;3.53;;;13.00;99.90;;;;;;5011235;28;20466;-58
2021/10/30 03:51:44;;;;;;;6.57;3.60;;;13.00;99.90;;;;;;5012297;28;20519;-57
2021/10/30 03:54:12;;;;;;;6.67;3.33;;;13.10;99.90;;;;;;5022835;28;20581;-58
2021/10/30 03:56:39;;;;;;;4.67;3.30;;;13.20;99.90;;;;;;5031378;28;20468;-58
2021/10/30 03:59:06;;;;;;;4.50;3.30;;;13.20;99.90;;;;;;5020319;28;20460;-58
2021/10/30 04:01:32;;;;;;;4.23;3.00;;;13.30;99.90;;;;;;5012036;28;20412;-58
2021/10/30 04:04:00;;;;;;;4.37;3.17;;;13.40;99.90;;;;;;5011305;28;20806;-58
2021/10/30 04:06:27;;;;;;;4.83;3.47;;;13.50;99.90;;;;;;5028241;28;20644;-58
2021/10/30 04:08:53;;;;;;;4.50;4.10;;;13.40;99.90;;;;;;5030760;28;20836;-58
2021/10/30 04:11:20;;;;;;;3.20;2.90;;;13.50;99.90;;;;;;5031676;28;20847;-58
2021/10/30 04:13:48;;;;;;;3.67;3.30;;;13.50;99.90;;;;;;5016593;28;20466;-58
2021/10/30 04:16:16;;;;;;;6.53;3.10;;;13.50;99.90;;;;;;5011447;28;20463;-58
2021/10/30 04:18:44;;;;;;;3.93;2.90;;;13.50;99.90;;;;;;5011081;28;20467;-58
2021/10/30 04:21:11;;;;;;;2.50;2.30;;;13.50;99.90;;;;;;5015420;28;20454;-58
2021/10/30 04:23:38;;;;;;;3.27;2.97;;;13.50;99.90;;;;;;5015005;28;20822;-58
2021/10/30 04:26:05;;;;;;;6.03;3.00;;;13.50;99.90;;;;;;5015085;28;20430;-58
2021/10/30 04:28:33;;;;;;;5.80;3.57;;;13.60;99.90;;;;;;4997675;28;20465;-58
2021/10/30 04:31:06;;;;;;;3.00;2.50;;;13.50;99.90;;;;;;5015462;28;20624;-58
2021/10/30 04:33:35;;;;;;;4.30;2.80;;;13.40;99.90;;;;;;5014646;28;20822;-58
2021/10/30 04:36:03;;;;;;;4.83;3.77;;;13.40;99.90;;;;;;5002667;28;20478;-58
2021/10/30 04:38:30;;;;;;;5.67;3.07;;;13.40;99.90;;;;;;5014837;28;20452;-58
2021/10/30 04:40:57;;;;;;;3.27;2.70;;;13.40;99.90;;;;;;5015047;28;20468;-58
2021/10/30 04:43:25;;;;;;;3.40;3.07;;;13.40;99.90;;;;;;5014476;28;20547;-58
2021/10/30 04:45:52;;;;;;;4.00;2.93;;;13.30;99.90;;;;;;5034262;28;20975;-58
2021/10/30 04:48:19;;;;;;;4.33;2.93;;;13.30;99.90;;;;;;5033997;28;20420;-58
2021/10/30 04:50:46;;;;;;;4.10;2.70;;;13.30;99.90;;;;;;5022450;28;20444;-58
2021/10/30 04:53:13;;;;;;;3.80;2.90;;;13.30;99.90;;;;;;5014331;28;20492;-58
2021/10/30 04:55:40;;;;;;;3.47;2.97;;;13.30;99.90;;;;;;5014825;28;20433;-58
2021/10/30 04:58:07;;;;;;;8.00;3.13;;;13.30;99.90;;;;;;5013688;28;20448;-58
2021/10/30 05:00:34;;;;;;;6.33;3.30;;;13.20;99.90;;;;;;5014900;28;20421;-58
2021/10/30 05:03:01;;;;;;;5.33;2.70;;;13.20;99.90;;;;;;5014516;28;20433;-57
2021/10/30 05:05:28;;;;;;;3.70;3.30;;;13.20;99.90;;;;;;5014292;28;20469;-58
2021/10/30 05:07:55;;;;;;;4.00;3.07;;;13.10;99.90;;;;;;5014554;28;20429;-58
2021/10/30 05:10:22;;;;;;;3.23;2.93;;;13.10;99.90;;;;;;5001082;28;20467;-58
2021/10/30 05:12:49;;;;;;;3.90;2.87;;;13.10;99.90;;;;;;5029253;28;20425;-58
2021/10/30 05:15:16;;;;;;;3.13;2.23;;;13.10;99.90;;;;;;5015833;28;20475;-58
2021/10/30 05:17:43;;;;;;;3.93;3.00;;;13.10;99.90;;;;;;5037241;28;20979;-58
2021/10/30 05:20:10;;;;;;;4.83;3.10;;;13.10;99.90;;;;;;5038890;28;20481;-58
2021/10/30 05:22:37;;;;;;;3.40;2.97;;;13.10;99.90;;;;;;5014516;28;20423;-58
2021/10/30 05:25:04;;;;;;;3.10;2.70;;;13.10;99.90;;;;;;5013729;28;20463;-58
2021/10/30 05:27:31;;;;;;;6.20;3.20;;;13.10;99.90;;;;;;5013866;28;20439;-58
2021/10/30 05:29:58;;;;;;;3.50;3.00;;;13.20;99.90;;;;;;5013532;28;20833;-58
2021/10/30 05:32:25;;;;;;;5.43;3.03;;;13.20;99.90;;;;;;5014295;28;20925;-58
2021/10/30 05:35:20;;;;;;;3.43;3.13;;;13.20;99.90;;;;;;5013568;28;20466;-58
2021/10/30 05:38:12;;;;;;;5.57;3.40;;;13.20;99.90;;;;;;5012927;28;20993;-58
2021/10/30 05:40:39;;;;;;;3.10;2.77;;;13.20;99.90;;;;;;5014000;28;20459;-57
2021/10/30 05:43:06;;;;;;;4.30;3.00;;;13.20;99.90;;;;;;5013384;28;20433;-58
2021/10/30 05:45:33;;;;;;;3.90;2.80;;;13.20;99.90;;;;;;5013885;28;20561;-58
2021/10/30 05:48:03;;;;;;;4.27;3.10;;;13.20;99.90;;;;;;5013752;28;20423;-58
2021/10/30 05:50:30;;;;;;;3.07;2.77;;;13.20;99.90;;;;;;5013533;28;20461;-58
2021/10/30 05:52:57;;;;;;;4.03;3.20;;;13.20;99.90;;;;;;5013570;28;20948;-57
2021/10/30 05:55:24;;;;;;;2.97;2.57;;;13.30;99.90;;;;;;5013147;28;20463;-58
2021/10/30 05:57:51;;;;;;;3.97;3.10;;;13.30;99.90;;;;;;5013464;28;21025;-58
2021/10/30 06:00:18;;;;;;;6.10;3.03;;;13.40;99.90;;;;;;5013014;28;20462;-58
2021/10/30 06:02:45;;;;;;;2.93;2.10;;;13.40;99.90;;;;;;5013627;28;20421;-58
2021/10/30 06:05:12;;;;;;;4.10;2.70;;;13.40;99.90;;;;;;5024464;28;20482;-58
2021/10/30 06:07:39;;;;;;;3.20;2.43;;;13.40;99.90;;;;;;5013101;28;20438;-58
2021/10/30 06:10:07;;;;;;;3.37;2.43;;;13.50;99.90;;;;;;5012908;28;20545;-58
2021/10/30 06:12:38;;;;;;;4.37;2.87;;;13.50;99.90;;;;;;5013522;28;20452;-58
2021/10/30 06:15:06;;;;;;;3.73;3.10;;;13.50;99.90;;;;;;4997908;28;20503;-58
2021/10/30 06:17:33;;;;;;;2.80;2.23;;;13.50;99.90;;;;;;5033768;28;20458;-58
2021/10/30 06:20:01;;;;;;;2.70;2.30;;;13.50;99.90;;;;;;5039903;28;20465;-58
2021/10/30 06:22:28;;;;;;;6.47;3.00;;;13.60;99.90;;;;;;5013364;28;20424;-58
2021/10/30 06:24:54;;;;;;;3.53;2.67;;;13.60;99.90;;;;;;5012743;28;20465;-58
2021/10/30 06:27:21;;;;;;;3.50;2.97;;;13.60;99.90;;;;;;5012737;28;20789;-58
2021/10/30 06:29:48;;;;;;;4.03;2.67;;;13.60;99.90;;;;;;4995193;28;20464;-58
2021/10/30 06:32:15;;;;;;;3.03;2.27;;;13.60;99.90;;;;;;5013086;28;20432;-58
2021/10/30 06:34:42;;;;;;;3.20;2.50;;;13.60;99.90;;;;;;5012254;28;20856;-58
2021/10/30 06:37:09;;;;;;;3.53;2.60;;;13.60;99.90;;;;;;5012733;28;20471;-58
2021/10/30 06:39:36;;;;;;;2.60;2.17;;;13.60;99.90;;;;;;5012440;28;20462;-58
2021/10/30 06:42:03;;;;;;;3.53;2.20;;;13.60;99.90;;;;;;5012195;28;20503;-58
2021/10/30 06:44:30;;;;;;;2.90;2.60;;;13.70;99.90;;;;;;5012383;28;20547;-58
2021/10/30 06:46:57;;;;;;;5.87;3.13;;;13.60;99.90;;;;;;5012795;28;20519;-58
2021/10/30 06:49:25;;;;;;;4.13;3.73;;;13.70;99.90;;;;;;5018964;28;20479;-58
2021/10/30 06:51:52;;;;;;;3.77;2.40;;;13.60;99.90;;;;;;5028601;28;20432;-58
2021/10/30 06:54:19;;;;;;;5.27;2.53;;;13.70;99.90;;;;;;5013698;28;20474;-58
2021/10/30 06:56:48;;;;;;;2.57;2.37;;;13.80;99.90;;;;;;5012287;28;20488;-58
2021/10/30 06:59:15;;;;;;;5.33;2.33;;;13.80;99.90;;;;;;5012303;28;20562;-58
2021/10/30 07:01:42;;;;;;;2.83;2.47;;;13.80;99.90;;;;;;5012507;28;20513;-58
2021/10/30 07:04:11;;;;;;;3.23;2.47;;;13.80;99.90;;;;;;5012011;28;20483;-58
2021/10/30 07:06:38;;;;;;;4.50;2.23;;;13.90;99.90;;;;;;5028527;28;20469;-58
2021/10/30 07:09:05;;;;;;;2.40;2.10;;;13.90;99.90;;;;;;5051510;28;20989;-58
2021/10/30 07:11:32;;;;;;;4.43;2.20;;;13.90;99.90;;;;;;5052196;28;20437;-58
2021/10/30 07:13:59;;;;;;;3.93;2.63;;;14.00;99.90;;;;;;5051252;28;20474;-58
2021/10/30 07:16:26;;;;;;;3.27;2.73;;;14.10;99.90;;;;;;5012304;28;20560;-58
2021/10/30 07:18:53;;;;;;;4.00;2.40;;;14.00;99.90;;;;;;5011606;28;20467;-58
2021/10/30 07:21:20;;;;;;;4.63;2.50;;;14.00;99.90;;;;;;5040352;28;20686;-58
2021/10/30 07:23:47;;;;;;;2.37;2.17;;;14.00;99.90;;;;;;5033445;28;20461;-58
2021/10/30 07:26:14;;;;;;;3.07;2.30;;;14.00;99.90;;;;;;5051638;28;20458;-58
2021/10/30 07:28:41;;;;;;;5.63;2.70;;;14.00;99.90;;;;;;5018375;28;20468;-58
2021/10/30 07:31:08;;;;;;;2.97;2.63;;;14.00;99.90;;;;;;5012089;28;20428;-58
2021/10/30 07:33:35;;;;;;;4.50;2.60;;;14.00;99.90;;;;;;4993821;28;20503;-58
2021/10/30 07:36:03;;;;;;;3.57;2.60;;;14.00;99.90;;;;;;5042962;28;20470;-58
2021/10/30 07:38:30;;;;;;;3.37;2.50;;;14.00;99.90;;;;;;5051202;28;21093;-58
2021/10/30 07:40:57;;;;;;;4.00;2.47;;;14.00;99.90;;;;;;5030561;28;20425;-58
2021/10/30 07:43:25;;;;;;;5.53;3.10;;;14.10;99.90;;;;;;5021017;28;20474;-58
2021/10/30 07:45:51;;;;;;;4.23;2.17;;;14.10;99.90;;;;;;5011810;28;20547;-58
2021/10/30 07:48:19;;;;;;;3.67;2.53;;;14.10;99.90;;;;;;4994212;28;20838;-58
2021/10/30 07:50:45;;;;;;;7.57;3.03;;;14.10;99.90;;;;;;5012129;28;20444;-58
2021/10/30 07:53:14;;;;;;;2.87;2.17;;;14.10;99.90;;;;;;5012659;28;20435;-58
2021/10/30 07:55:40;;;;;;;2.70;1.97;;;14.20;99.90;;;;;;5055012;28;20469;-58
2021/10/30 07:58:07;;;;;;;5.10;2.70;;;14.20;99.90;;;;;;5039246;28;20563;-58
2021/10/30 08:00:34;;;;;;;2.80;2.10;;;14.20;99.90;;;;;;5016005;28;20413;-58
2021/10/30 08:03:01;;;;;;;3.43;2.43;;;14.20;99.90;;;;;;5015951;28;20424;-58
2021/10/30 08:05:28;;;;;;;6.47;2.53;;;14.20;99.90;;;;;;4997399;28;20830;-58
2021/10/30 08:07:55;;;;;;;4.20;2.80;;;14.10;99.90;;;;;;4998296;28;20900;-58
2021/10/30 08:10:26;;;;;;;2.80;2.20;;;14.20;99.90;;;;;;5027983;28;20456;-58
2021/10/30 08:12:54;;;;;;;2.20;2.00;;;14.20;99.90;;;;;;5055412;28;20946;-58
2021/10/30 08:15:22;;;;;;;3.47;2.00;;;14.20;99.90;;;;;;5024942;28;20479;-57
2021/10/30 08:17:52;;;;;;;5.40;2.40;;;14.20;99.90;;;;;;4998070;28;20922;-57
2021/10/30 08:20:19;;;;;;;2.87;2.60;;;14.20;99.90;;;;;;5015241;28;20532;-58
2021/10/30 08:22:46;;;;;;;3.57;2.90;;;14.20;99.90;;;;;;5015567;28;20423;-57
2021/10/30 08:25:13;;;;;;;6.70;2.80;;;14.20;99.90;;;;;;4997319;28;20493;-57
2021/10/30 08:27:39;;;;;;;3.47;2.80;;;14.20;99.90;;;;;;5015137;28;20427;-58
2021/10/30 08:30:07;;;;;;;2.03;1.47;;;14.20;99.90;;;;;;5032558;28;21012;-57
2021/10/30 08:32:34;;;;;;;1.80;1.67;;;14.20;99.90;;;;;;5039616;28;20431;-57
2021/10/30 08:35:01;;;;;;;4.73;3.10;;;14.30;99.90;;;;;;5022879;28;20558;-57
2021/10/30 08:37:29;;;;;;;5.03;3.10;;;14.30;99.90;;;;;;5014761;28;20839;-58
2021/10/30 08:39:56;;;;;;;1.93;1.73;;;14.20;99.90;;;;;;5023739;28;20458;-58
2021/10/30 08:42:23;;;;;;;2.53;2.17;;;14.30;99.90;;;;;;5044429;28;20791;-58
2021/10/30 08:44:50;;;;;;;3.30;2.03;;;14.30;99.90;;;;;;5016837;28;20471;-57
2021/10/30 08:47:19;;;;;;;2.00;1.80;;;14.20;99.90;;;;;;5034468;28;20421;-58
2021/10/30 08:49:46;;;;;;;1.90;1.50;;;14.20;99.90;;;;;;5029673;28;20511;-57
2021/10/30 08:52:13;;;;;;;3.47;2.50;;;14.20;99.90;;;;;;5053906;28;20435;-58
2021/10/30 08:54:40;;;;;;;2.00;1.60;;;14.20;99.90;;;;;;5047589;28;20451;-58
2021/10/30 08:57:08;;;;;;;7.37;3.20;;;14.20;99.90;;;;;;5034365;28;20473;-57
2021/10/30 08:59:44;;;;;;;3.63;1.73;;;14.20;99.90;;;;;;5031614;28;20504;-58
2021/10/30 09:02:29;;;;;;;3.00;2.10;;;14.20;99.90;;;;;;5014905;28;20405;-60
2021/10/30 09:05:14;;;;;;;3.40;2.03;;;14.20;99.90;;;;;;5013485;28;20476;-61
2021/10/30 09:07:43;;;;;;;2.17;1.93;;;14.20;99.90;;;;;;5037803;28;20850;-60
2021/10/30 09:10:16;;;;;;;2.00;1.80;;;14.20;99.90;;;;;;5033847;28;20474;-61
2021/10/30 09:12:55;;;;;;;2.50;2.17;;;14.30;99.90;;;;;;5034745;28;20511;-61
2021/10/30 09:15:37;;;;;;;2.90;2.60;;;14.20;99.90;;;;;;5039218;28;20483;-61
2021/10/30 09:18:28;;;;;;;2.10;1.80;;;14.30;99.90;;;;;;5035445;28;20451;-61
2021/10/30 09:21:07;;;;;;;2.67;2.10;;;14.30;99.90;;;;;;5026069;28;20437;-61
2021/10/30 09:23:37;;;;;;;2.30;2.10;;;14.30;99.90;;;;;;5013670;28;20456;-61
2021/10/30 09:26:07;;;;;;;2.63;2.00;;;14.30;99.90;;;;;;5014153;28;20520;-61
2021/10/30 09:28:47;;;;;;;2.83;1.97;;;14.30;99.90;;;;;;5013557;28;20457;-61
2021/10/30 09:31:17;;;;;;;2.00;1.90;;;14.30;99.90;;;;;;4996357;28;20451;-61
2021/10/30 09:33:50;;;;;;;3.37;2.33;;;14.40;99.90;;;;;;5013362;28;20442;-61
2021/10/30 09:36:17;;;;;;;2.23;2.03;;;14.40;99.90;;;;;;5013933;28;20445;-61
2021/10/30 09:38:46;;;;;;;2.90;1.93;;;14.40;99.90;;;;;;5009632;28;20461;-61
2021/10/30 09:41:30;;;;;;;2.33;1.60;;;14.40;99.90;;;;;;5053581;28;20427;-61
2021/10/30 09:44:01;;;;;;;3.40;1.90;;;14.40;99.90;;;;;;5032445;28;20595;-61
2021/10/30 09:46:35;;;;;;;2.70;1.80;;;14.40;99.90;;;;;;5013457;28;20443;-61
2021/10/30 09:49:23;;;;;;;2.67;1.70;;;14.50;99.90;;;;;;5013381;28;20563;-61
2021/10/30 09:52:15;;;;;;;1.70;1.60;;;14.40;99.90;;;;;;5013709;28;20429;-61
2021/10/30 09:54:47;;;;;;;1.87;1.57;;;14.50;99.90;;;;;;5012835;28;20472;-61
2021/10/30 09:57:29;;;;;;;7.67;1.70;;;14.40;99.90;;;;;;5013551;28;20811;-61
2021/10/30 09:59:59;;;;;;;2.57;2.00;;;14.40;99.90;;;;;;5013185;28;20471;-61
2021/10/30 10:02:28;;;;;;;4.97;1.90;;;14.40;99.90;;;;;;5013565;28;20416;-61
2021/10/30 10:04:59;;;;;;;4.77;1.77;;;14.40;99.90;;;;;;5011743;28;20552;-61
2021/10/30 10:07:28;;;;;;;1.77;1.67;;;14.40;99.90;;;;;;4996076;28;20460;-61
2021/10/30 10:09:57;;;;;;;1.83;1.70;;;14.30;99.90;;;;;;5017177;28;20496;-60
2021/10/30 10:12:24;;;;;;;2.07;1.57;;;14.40;99.90;;;;;;5022031;28;20451;-60
2021/10/30 10:14:52;;;;;;;2.07;1.80;;;14.40;99.90;;;;;;5017396;28;20472;-60
2021/10/30 10:17:20;;;;;;;3.10;2.47;;;14.40;99.90;;;;;;4995128;28;20421;-60
2021/10/30 10:19:49;;;;;;;4.60;2.57;;;14.40;99.90;;;;;;5011609;28;20600;-61
2021/10/30 10:22:16;;;;;;;2.77;2.27;;;14.40;99.90;;;;;;5017107;28;20937;-61
2021/10/30 10:24:43;;;;;;;3.53;2.17;;;14.40;99.90;;;;;;5032850;28;20570;-61
2021/10/30 10:27:10;;;;;;;2.90;1.57;;;14.30;99.90;;;;;;5048017;28;20519;-61
2021/10/30 10:29:45;;;;;;;2.07;1.50;;;14.40;99.90;;;;;;5015108;28;20990;-61
2021/10/30 10:32:15;;;;;;;2.33;1.90;;;14.30;99.90;;;;;;5012934;28;20421;-61
2021/10/30 10:34:42;;;;;;;3.83;2.93;;;14.40;99.90;;;;;;5012832;28;20507;-61
2021/10/30 10:37:17;;;;;;;3.83;2.57;;;14.30;99.90;;;;;;5012754;28;20476;-61
2021/10/30 10:39:47;;;;;;;2.33;1.60;;;14.30;99.90;;;;;;5012342;28;20466;-61
2021/10/30 10:42:33;;;;;;;3.73;2.20;;;14.40;99.90;;;;;;5014868;28;21226;-61
2021/10/30 10:45:10;;;;;;;3.23;1.57;;;14.40;99.90;;;;;;5051540;28;20915;-61
2021/10/30 10:47:41;;;;;;;2.40;1.90;;;14.40;99.90;;;;;;5030441;28;20522;-61
2021/10/30 10:50:18;;;;;;;3.70;2.00;;;14.40;99.90;;;;;;5036644;28;20500;-61
2021/10/30 10:53:04;;;;;;;2.20;1.83;;;14.50;99.90;;;;;;5012630;28;20421;-61
2021/10/30 10:55:33;;;;;;;3.53;1.70;;;14.40;99.90;;;;;;5012394;28;20445;-61
2021/10/30 10:58:03;;;;;;;2.53;1.87;;;14.50;99.90;;;;;;5012524;28;20469;-61
2021/10/30 11:00:31;;;;;;;3.23;1.97;;;14.50;99.90;;;;;;5012058;28;20858;-61
2021/10/30 11:02:59;;;;;;;3.13;2.37;;;14.50;99.90;;;;;;5012554;28;20432;-61
2021/10/30 11:05:33;;;;;;;4.37;2.20;;;14.50;99.90;;;;;;5011825;28;20477;-61
2021/10/30 11:08:33;;;;;;;1.87;1.70;;;14.50;99.90;;;;;;5011727;28;20424;-61
2021/10/30 11:11:27;;;;;;;2.73;1.67;;;14.50;99.90;;;;;;5012357;28;20425;-61
2021/10/30 11:13:58;;;;;;;2.30;2.10;;;14.50;99.90;;;;;;5009147;28;20508;-61
2021/10/30 11:16:36;;;;;;;3.53;1.50;;;14.50;99.90;;;;;;5043417;28;20432;-61
2021/10/30 11:19:09;;;;;;;2.80;2.20;;;14.50;99.90;;;;;;5051395;28;20555;-61
2021/10/30 11:21:42;;;;;;;2.80;1.97;;;14.50;99.90;;;;;;5035088;28;20450;-60
2021/10/30 11:24:39;;;;;;;2.17;1.50;;;14.60;99.90;;;;;;5051204;28;20475;-60
2021/10/30 11:27:07;;;;;;;2.80;1.90;;;14.60;99.90;;;;;;5048853;28;20435;-61
2021/10/30 11:29:45;;;;;;;2.57;1.90;;;14.70;99.90;;;;;;5035724;28;20564;-61
2021/10/30 11:32:12;;;;;;;3.17;1.73;;;14.60;99.90;;;;;;5012271;28;20467;-60
2021/10/30 11:34:39;;;;;;;3.00;1.63;;;14.70;99.90;;;;;;5022927;28;20483;-61
2021/10/30 11:37:06;;;;;;;3.20;1.90;;;14.70;99.90;;;;;;5011817;28;20428;-61
2021/10/30 11:39:33;;;;;;;2.43;1.70;;;14.70;99.90;;;;;;4994082;28;20477;-60
2021/10/30 11:42:05;;;;;;;1.60;1.50;;;14.70;99.90;;;;;;5012084;28;20421;-61
2021/10/30 11:44:48;;;;;;;3.00;1.73;;;14.70;99.90;;;;;;5011705;28;20479;-61
2021/10/30 11:47:17;;;;;;;3.27;2.03;;;14.70;99.90;;;;;;4993892;28;21044;-61
2021/10/30 11:49:44;;;;;;;4.33;1.77;;;14.70;99.90;;;;;;5014700;28;20468;-60
2021/10/30 11:52:10;;;;;;;3.20;2.03;;;14.70;99.90;;;;;;5019752;28;20981;-60
2021/10/30 11:54:37;;;;;;;2.13;1.60;;;14.70;99.90;;;;;;5012623;28;20990;-60
2021/10/30 11:57:09;;;;;;;1.83;1.60;;;14.70;99.90;;;;;;5011702;28;20483;-61
2021/10/30 11:59:43;;;;;;;2.50;1.67;;;14.70;99.90;;;;;;4993702;28;20563;-61
2021/10/30 12:02:15;;;;;;;2.60;1.80;;;14.80;99.90;;;;;;5012003;28;20451;-61
2021/10/30 12:04:43;;;;;;;2.23;2.03;;;14.70;99.90;;;;;;5012698;28;20487;-61
2021/10/30 12:07:12;;;;;;;4.27;1.80;;;14.70;99.90;;;;;;5033194;28;20432;-61
2021/10/30 12:09:41;;;;;;;2.40;1.67;;;14.70;99.90;;;;;;5031152;28;20546;-61
2021/10/30 12:12:11;;;;;;;4.13;1.30;;;14.80;99.90;;;;;;5031449;28;20452;-61
2021/10/30 12:14:48;;;;;;;2.63;2.43;;;14.80;99.90;;;;;;5011365;28;20463;-61
2021/10/30 12:17:23;;;;;;;1.80;1.50;;;14.80;99.90;;;;;;5028691;28;20423;-61
2021/10/30 12:20:05;;;;;;;2.03;1.57;;;14.90;99.90;;;;;;5041854;28;20571;-61
2021/10/30 12:22:40;;;;;;;2.80;1.60;;;14.90;99.90;;;;;;5028208;28;20423;-61
2021/10/30 12:25:08;;;;;;;3.80;2.00;;;15.00;99.90;;;;;;5050803;28;20477;-61
2021/10/30 12:27:36;;;;;;;2.20;1.70;;;15.10;99.90;;;;;;5051138;28;20936;-61
2021/10/30 12:30:12;;;;;;;2.10;1.47;;;15.10;99.90;;;;;;5042951;28;20483;-61
2021/10/30 12:32:45;;;;;;;1.63;1.30;;;15.20;99.90;;;;;;5046809;28;20416;-61
2021/10/30 12:35:26;;;;;;;3.03;1.73;;;15.30;99.90;;;;;;5023459;28;20504;-60
2021/10/30 12:37:53;;;;;;;2.87;1.57;;;15.40;99.90;;;;;;5011342;28;20508;-60
2021/10/30 12:40:34;;;;;;;3.00;2.60;;;15.40;99.90;;;;;;5012301;28;20547;-61
2021/10/30 12:43:13;;;;;;;1.60;1.50;;;15.50;99.90;;;;;;5015322;28;20488;-60
2021/10/30 12:45:43;;;;;;;2.03;1.63;;;15.50;99.90;;;;;;5014686;28;20504;-60
2021/10/30 12:48:21;;;;;;;2.10;1.87;;;15.50;99.90;;;;;;5012902;28;20445;-60
2021/10/30 12:50:53;;;;;;;3.40;1.70;;;15.50;99.90;;;;;;5015145;28;20954;-61
2021/10/30 12:53:30;;;;;;;2.10;1.40;;;15.50;99.90;;;;;;5014451;28;20421;-61
2021/10/30 12:56:07;;;;;;;2.00;1.77;;;15.40;99.90;;;;;;5014712;28;20451;-61
2021/10/30 12:59:04;;;;;;;5.00;1.70;;;15.40;99.90;;;;;;5014285;28;20538;-60